Latest Weather Observations for South Channel Island

IDV60901

Issued at 4:31 am EDT Saturday 7 March 2015 (issued every 10 minutes, with the page automatically refreshed every 10 minutes)

About weather observations | Map of Melbourne area stations | Latest observations for Melbourne area | Other Formats
Station Details ID: 086344 Name: SOUTH CHANNEL ISLAND Lat: -38.31 Lon: 144.80 Height: 9.0 m
Data from the previous 72 hours. | See also: Recent months for locations in Victoria
Date/Time
EDT
Tmp

°C
App
Tmp
°C
Dew
Point
°C
Rel
Hum
%
Delta-T

°C
Wind Press
QNH
hPa
Press
MSL
hPa
Rain
since
9 am
mm
Dir
 
Spd
km/h
Gust
km/h
Spd
kts
Gust
kts
07/04:30am - - - - - WNW 28 32 15 17 - - -
07/04:00am - - - - - WNW 24 28 13 15 - - -
07/03:30am - - - - - WNW 32 39 17 21 - - -
07/03:00am - - - - - WNW 30 35 16 19 - - -
07/02:30am - - - - - WNW 37 43 20 23 - - -
07/02:00am - - - - - WNW 33 37 18 20 - - -
07/01:30am - - - - - WNW 35 39 19 21 - - -
07/01:00am - - - - - WNW 33 37 18 20 - - -
07/12:30am - - - - - WNW 32 35 17 19 - - -
07/12:00am - - - - - WNW 32 35 17 19 - - -
 
Date/Time
EDT
Tmp

°C
App
Tmp
°C
Dew
Point
°C
Rel
Hum
%
Delta-T

°C
Wind Press
QNH
hPa
Press
MSL
hPa
Rain
since
9 am
mm
Dir
 
Spd
km/h
Gust
km/h
Spd
kts
Gust
kts
06/11:30pm - - - - - W 28 35 15 19 - - -
06/11:00pm - - - - - W 28 32 15 17 - - -
06/10:30pm - - - - - WSW 24 28 13 15 - - -
06/10:00pm - - - - - SW 30 35 16 19 - - -
06/09:30pm - - - - - SW 32 37 17 20 - - -
06/09:00pm - - - - - SW 30 35 16 19 - - -
06/08:30pm - - - - - SW 33 41 18 22 - - -
06/08:00pm - - - - - SW 35 46 19 25 - - -
06/07:30pm - - - - - SW 37 44 20 24 - - -
06/07:00pm - - - - - SW 41 50 22 27 - - -
06/06:30pm - - - - - SW 43 52 23 28 - - -
06/06:00pm - - - - - SW 44 52 24 28 - - -
06/05:30pm - - - - - SW 44 52 24 28 - - -
06/05:00pm - - - - - SW 46 56 25 30 - - -
06/04:30pm - - - - - SW 44 56 24 30 - - -
06/04:00pm - - - - - SW 48 56 26 30 - - -
06/03:30pm - - - - - SW 50 57 27 31 - - -
06/03:00pm - - - - - SW 52 63 28 34 - - -
06/02:30pm - - - - - SW 50 59 27 32 - - -
06/02:00pm - - - - - SW 52 69 28 37 - - -
06/01:55pm - - - - - SW 48 69 26 37 - - -
06/01:30pm - - - - - SW 50 59 27 32 - - -
06/01:00pm - - - - - WSW 54 63 29 34 - - -
06/12:30pm - - - - - WSW 52 61 28 33 - - -
06/12:01pm - - - - - WSW 54 72 29 39 - - -
06/12:00pm - - - - - WSW 52 63 28 34 - - -
06/11:30am - - - - - WSW 50 72 27 39 - - -
06/11:25am - - - - - W 43 61 23 33 - - -
06/11:00am - - - - - W 35 43 19 23 - - -
06/10:30am - - - - - W 41 50 22 27 - - -
06/10:00am - - - - - W 43 54 23 29 - - -
06/09:30am - - - - - W 44 54 24 29 - - -
06/09:00am - - - - - W 48 57 26 31 - - -
06/08:30am - - - - - W 50 59 27 32 - - -
06/08:00am - - - - - W 52 61 28 33 - - -
06/07:30am - - - - - W 50 57 27 31 - - -
06/07:00am - - - - - W 50 59 27 32 - - -
06/06:30am - - - - - W 48 61 26 33 - - -
06/06:00am - - - - - W 46 56 25 30 - - -
06/05:30am - - - - - WNW 48 54 26 29 - - -
06/05:00am - - - - - WNW 52 57 28 31 - - -
06/04:30am - - - - - WNW 50 57 27 31 - - -
06/04:00am - - - - - WNW 50 56 27 30 - - -
06/03:30am - - - - - WNW 48 54 26 29 - - -
06/03:00am - - - - - WNW 50 56 27 30 - - -
06/02:30am - - - - - WNW 46 56 25 30 - - -
06/02:00am - - - - - WNW 48 56 26 30 - - -
06/01:30am - - - - - WNW 46 56 25 30 - - -
06/01:00am - - - - - WNW 43 50 23 27 - - -
06/12:30am - - - - - WNW 48 57 26 31 - - -
06/12:00am - - - - - W 44 56 24 30 - - -
 
Date/Time
EDT
Tmp

°C
App
Tmp
°C
Dew
Point
°C
Rel
Hum
%
Delta-T

°C
Wind Press
QNH
hPa
Press
MSL
hPa
Rain
since
9 am
mm
Dir
 
Spd
km/h
Gust
km/h
Spd
kts
Gust
kts
05/11:30pm - - - - - WNW 50 57 27 31 - - -
05/11:00pm - - - - - WNW 50 59 27 32 - - -
05/10:30pm - - - - - WNW 48 57 26 31 - - -
05/10:00pm - - - - - WNW 50 59 27 32 - - -
05/09:30pm - - - - - WNW 48 56 26 30 - - -
05/09:00pm - - - - - W 46 56 25 30 - - -
05/08:30pm - - - - - W 46 54 25 29 - - -
05/08:00pm - - - - - W 46 54 25 29 - - -
05/07:30pm - - - - - WSW 43 52 23 28 - - -
05/07:00pm - - - - - WSW 39 48 21 26 - - -
05/06:30pm - - - - - SW 43 52 23 28 - - -
05/06:00pm - - - - - SW 43 52 23 28 - - -
05/05:30pm - - - - - SW 46 54 25 29 - - -
05/05:00pm - - - - - SW 48 59 26 32 - - -
05/04:30pm - - - - - SW 48 59 26 32 - - -
05/04:00pm - - - - - SW 46 56 25 30 - - -
05/03:30pm - - - - - SW 46 56 25 30 - - -
05/03:00pm - - - - - SW 48 57 26 31 - - -
05/02:30pm - - - - - SW 44 56 24 30 - - -
05/02:00pm - - - - - SW 43 52 23 28 - - -
05/01:30pm - - - - - SW 44 54 24 29 - - -
05/01:00pm - - - - - SW 44 57 24 31 - - -
05/12:30pm - - - - - SW 48 61 26 33 - - -
05/12:00pm - - - - - SW 50 59 27 32 - - -
05/11:30am - - - - - SW 50 61 27 33 - - -
05/11:00am - - - - - SW 52 63 28 34 - - -
05/10:30am - - - - - SW 59 72 32 39 - - -
05/10:06am - - - - - WSW 61 80 33 43 - - -
05/10:00am - - - - - SW 63 80 34 43 - - -
05/09:57am - - - - - SW 59 78 32 42 - - -
05/09:30am - - - - - SW 61 74 33 40 - - -
05/09:00am - - - - - SW 57 74 31 40 - - -
05/08:55am - - - - - SW 57 74 31 40 - - -
05/08:34am - - - - - SW 63 87 34 47 - - -
05/08:30am - - - - - SW 70 91 38 49 - - -
05/08:29am - - - - - SW 69 91 37 49 - - -
05/08:25am - - - - - SW 65 91 35 49 - - -
05/08:00am - - - - - SW 59 78 32 42 - - -
05/07:58am - - - - - WSW 59 78 32 42 - - -
05/07:38am - - - - - SW 48 72 26 39 - - -
05/07:36am - - - - - SW 50 74 27 40 - - -
05/07:34am - - - - - SW 54 82 29 44 - - -
05/07:30am - - - - - SW 59 82 32 44 - - -
05/07:12am - - - - - SW 57 78 31 42 - - -
05/07:00am - - - - - WSW 57 69 31 37 - - -
05/06:35am - - - - - SW 61 80 33 43 - - -
05/06:30am - - - - - WSW 63 76 34 41 - - -
05/06:00am - - - - - WSW 59 78 32 42 - - -
05/05:41am - - - - - WSW 63 83 34 45 - - -
05/05:30am - - - - - SW 67 83 36 45 - - -
05/05:01am - - - - - WSW 74 93 40 50 - - -
05/05:00am - - - - - WSW 76 93 41 50 - - -
05/04:35am - - - - - SW 72 95 39 51 - - -
05/04:30am - - - - - WSW 72 85 39 46 - - -
05/04:21am - - - - - WSW 65 85 35 46 - - -
05/04:00am - - - - - WSW 67 82 36 44 - - -
05/03:30am - - - - - WSW 80 98 43 53 - - -
05/03:00am - - - - - WSW 78 96 42 52 - - -
05/02:49am - - - - - WSW 67 98 36 53 - - -
05/02:47am - - - - - WSW 61 93 33 50 - - -
05/02:45am - - - - - WSW 57 80 31 43 - - -
05/02:30am - - - - - W 56 65 30 35 - - -
05/02:00am - - - - - W 56 63 30 34 - - -
05/01:31am - - - - - WNW 61 80 33 43 - - -
05/01:30am - - - - - WNW 63 80 34 43 - - -
05/01:00am - - - - - WNW 56 74 30 40 - - -
05/12:59am - - - - - WNW 54 74 29 40 - - -
05/12:30am - - - - - WNW 57 70 31 38 - - -
05/12:19am - - - - - WNW 57 76 31 41 - - -
05/12:00am - - - - - WNW 59 70 32 38 - - -
 
Date/Time
EDT
Tmp

°C
App
Tmp
°C
Dew
Point
°C
Rel
Hum
%
Delta-T

°C
Wind Press
QNH
hPa
Press
MSL
hPa
Rain
since
9 am
mm
Dir
 
Spd
km/h
Gust
km/h
Spd
kts
Gust
kts
04/11:41pm - - - - - WNW 46 65 25 35 - - -
04/11:30pm - - - - - W 39 50 21 27 - - -
04/11:00pm - - - - - W 41 46 22 25 - - -
04/10:30pm - - - - - W 41 50 22 27 - - -
04/10:00pm - - - - - W 32 39 17 21 - - -
04/09:30pm - - - - - W 32 37 17 20 - - -
04/09:00pm - - - - - WSW 35 41 19 22 - - -
04/08:30pm - - - - - W 32 37 17 20 - - -
04/08:00pm - - - - - WNW 33 39 18 21 - - -
04/07:30pm - - - - - W 35 41 19 22 - - -
04/07:00pm - - - - - W 35 43 19 23 - - -
04/06:30pm - - - - - WSW 32 35 17 19 - - -
04/06:00pm - - - - - WSW 30 35 16 19 - - -
04/05:30pm - - - - - WSW 19 24 10 13 - - -
04/05:00pm - - - - - WSW 26 33 14 18 - - -
04/04:30pm - - - - - WSW 28 33 15 18 - - -
04/04:00pm - - - - - W 32 37 17 20 - - -
04/03:30pm - - - - - W 33 39 18 21 - - -
04/03:00pm - - - - - WSW 22 30 12 16 - - -
04/02:30pm - - - - - W 22 26 12 14 - - -
04/02:00pm - - - - - WNW 19 26 10 14 - - -
04/01:30pm - - - - - WNW 26 32 14 17 - - -
04/01:00pm - - - - - WNW 19 24 10 13 - - -
04/12:30pm - - - - - NW 28 35 15 19 - - -
04/12:00pm - - - - - WNW 32 37 17 20 - - -
04/11:30am - - - - - W 35 41 19 22 - - -
04/11:00am - - - - - WNW 24 30 13 16 - - -
04/10:30am - - - - - WNW 28 30 15 16 - - -
04/10:00am - - - - - WNW 32 37 17 20 - - -
04/09:30am - - - - - WNW 35 41 19 22 - - -
04/09:00am - - - - - WNW 33 37 18 20 - - -
04/08:30am - - - - - NW 33 37 18 20 - - -
04/08:00am - - - - - WNW 33 39 18 21 - - -
04/07:30am - - - - - NW 32 35 17 19 - - -
04/07:00am - - - - - WNW 32 35 17 19 - - -
04/06:30am - - - - - WNW 28 35 15 19 - - -
04/06:00am - - - - - WNW 26 30 14 16 - - -
04/05:30am - - - - - W 22 30 12 16 - - -
04/05:00am - - - - - WSW 26 30 14 16 - - -

Latest Capital City Observations: Canberra | Sydney | Melbourne | Brisbane | Adelaide | Perth | Hobart | Darwin

Other Formats:

Comma delimited format used in spreadsheet applications
http://www.bom.gov.au/fwo/IDV60901/IDV60901.94853.axf

JavaScript Object Notation format (JSON) in row-major order
http://www.bom.gov.au/fwo/IDV60901/IDV60901.94853.json